createdAt,value
2019-06-27T00:01:51.494Z,6.42
2019-06-27T00:04:26.025Z,11.10
2019-06-27T00:07:00.241Z,8.85
2019-06-27T00:09:34.491Z,9.25
2019-06-27T00:12:08.885Z,12.47
2019-06-27T00:14:43.141Z,12.07
2019-06-27T00:17:17.429Z,10.10
2019-06-27T00:19:51.790Z,12.00
2019-06-27T00:22:26.078Z,8.28
2019-06-27T00:25:00.459Z,8.80
2019-06-27T00:27:35.778Z,11.70
2019-06-27T00:30:10.133Z,9.25
2019-06-27T00:32:44.446Z,7.87
2019-06-27T00:35:18.734Z,13.10
2019-06-27T00:37:53.013Z,7.22
2019-06-27T00:40:27.322Z,10.75
2019-06-27T00:43:01.677Z,9.10
2019-06-27T00:45:35.857Z,8.23
2019-06-27T00:48:10.152Z,6.85
2019-06-27T00:50:45.243Z,6.35
2019-06-27T00:53:21.496Z,9.23
2019-06-27T00:55:55.865Z,9.35
2019-06-27T00:58:31.263Z,5.83
2019-06-27T01:01:05.579Z,8.58
2019-06-27T01:06:13.323Z,10.45
2019-06-27T01:08:47.722Z,12.10
2019-06-27T01:11:22.081Z,9.68
2019-06-27T01:13:56.438Z,8.93
2019-06-27T01:16:30.783Z,14.95
2019-06-27T01:19:05.085Z,8.38
2019-06-27T01:21:39.441Z,11.88
2019-06-27T01:24:15.557Z,9.25
2019-06-27T01:26:49.897Z,6.97
2019-06-27T01:29:24.261Z,10.53
2019-06-27T01:31:58.492Z,9.28
2019-06-27T01:34:32.794Z,14.90
2019-06-27T01:37:07.137Z,11.78
2019-06-27T01:40:09.689Z,10.23
2019-06-27T01:42:44.053Z,10.88
2019-06-27T01:45:29.654Z,9.90
2019-06-27T01:48:03.985Z,11.70
2019-06-27T01:50:38.301Z,9.85
2019-06-27T01:53:14.516Z,13.03
2019-06-27T01:55:48.877Z,13.25
2019-06-27T01:58:23.129Z,8.00
2019-06-27T02:01:13.587Z,13.90
2019-06-27T02:03:47.946Z,11.12
2019-06-27T02:06:22.193Z,13.95
2019-06-27T02:08:56.565Z,6.70
2019-06-27T02:11:30.889Z,13.08
2019-06-27T02:14:05.277Z,8.10
2019-06-27T02:16:39.445Z,15.15
2019-06-27T02:19:14.789Z,16.67
2019-06-27T02:21:49.077Z,14.75
2019-06-27T02:24:23.404Z,9.35
2019-06-27T02:26:57.753Z,13.43
2019-06-27T02:29:33.025Z,15.63
2019-06-27T02:32:07.322Z,8.85
2019-06-27T02:34:41.674Z,9.73
2019-06-27T02:37:17.029Z,10.48
2019-06-27T02:39:53.345Z,8.08
2019-06-27T02:42:27.653Z,13.35
2019-06-27T02:45:02.321Z,13.15
2019-06-27T02:47:36.565Z,11.08
2019-06-27T02:50:11.325Z,12.63
2019-06-27T02:52:45.705Z,14.87
2019-06-27T02:55:20.425Z,9.70
2019-06-27T02:57:55.982Z,10.48
2019-06-27T03:00:30.382Z,10.13
2019-06-27T03:03:04.696Z,14.60
2019-06-27T03:05:52.966Z,13.13
2019-06-27T03:08:27.254Z,14.28
2019-06-27T03:11:06.212Z,8.33
2019-06-27T03:13:40.506Z,9.85
2019-06-27T03:16:14.825Z,13.85
2019-06-27T03:18:49.121Z,10.48
2019-06-27T03:21:23.477Z,8.88
2019-06-27T03:23:57.860Z,8.63
2019-06-27T03:26:32.101Z,7.95
2019-06-27T03:29:06.309Z,14.93
2019-06-27T03:31:40.610Z,7.80
2019-06-27T03:34:14.874Z,13.32
2019-06-27T03:36:49.126Z,8.93
2019-06-27T03:39:23.444Z,10.53
2019-06-27T03:42:04.024Z,12.85
2019-06-27T03:44:38.361Z,11.68
2019-06-27T03:47:12.580Z,9.60
2019-06-27T03:49:58.325Z,8.55
2019-06-27T03:52:32.624Z,15.43
2019-06-27T03:55:07.103Z,8.93
2019-06-27T03:57:44.676Z,5.20
2019-06-27T04:00:29.505Z,10.80
2019-06-27T04:03:03.935Z,5.75
2019-06-27T04:05:42.046Z,10.03
2019-06-27T04:08:16.401Z,9.03
2019-06-27T04:10:50.720Z,15.85
2019-06-27T04:13:25.392Z,9.80
2019-06-27T04:15:59.717Z,9.38
2019-06-27T04:18:34.344Z,11.05
2019-06-27T04:21:08.679Z,12.47
2019-06-27T04:23:42.968Z,7.45
2019-06-27T04:26:17.256Z,8.75
2019-06-27T04:28:51.620Z,11.18
2019-06-27T04:31:26.142Z,12.25
2019-06-27T04:34:00.457Z,10.05
2019-06-27T04:36:34.701Z,13.08
2019-06-27T04:39:09.033Z,21.93
2019-06-27T04:41:43.305Z,6.28
2019-06-27T04:44:17.609Z,8.13
2019-06-27T04:46:51.885Z,12.28
2019-06-27T04:49:26.181Z,11.53
2019-06-27T04:52:00.464Z,7.42
2019-06-27T04:54:48.692Z,8.08
2019-06-27T04:57:22.933Z,8.85
2019-06-27T04:59:57.143Z,12.43
2019-06-27T05:02:31.496Z,5.30
2019-06-27T05:05:24.148Z,7.03
2019-06-27T05:07:58.512Z,6.72
2019-06-27T05:10:32.869Z,10.70
2019-06-27T05:13:10.794Z,6.25
2019-06-27T05:15:45.028Z,8.30
2019-06-27T05:18:19.449Z,8.10
2019-06-27T05:20:55.472Z,8.38
2019-06-27T05:23:29.721Z,4.37
2019-06-27T05:26:04.108Z,6.25
2019-06-27T05:28:38.364Z,6.37
2019-06-27T05:31:12.636Z,9.78
2019-06-27T05:33:50.452Z,10.58
2019-06-27T05:36:29.276Z,10.93
2019-06-27T05:39:05.304Z,8.48
2019-06-27T05:41:39.603Z,11.10
2019-06-27T05:44:25.248Z,8.93
2019-06-27T05:47:01.028Z,10.98
2019-06-27T05:49:35.260Z,6.53
2019-06-27T05:52:09.524Z,7.95
2019-06-27T05:54:43.942Z,10.30
2019-06-27T05:57:18.244Z,11.55
2019-06-27T05:59:52.476Z,6.03
2019-06-27T06:02:26.764Z,9.88
2019-06-27T06:05:00.948Z,6.37
2019-06-27T06:07:35.284Z,9.80
2019-06-27T06:10:09.649Z,10.28
2019-06-27T06:12:43.958Z,10.80
2019-06-27T06:15:18.294Z,9.10
2019-06-27T06:17:52.562Z,9.58
2019-06-27T06:20:30.596Z,8.15
2019-06-27T06:23:04.953Z,14.85
2019-06-27T06:25:39.308Z,7.85
2019-06-27T06:28:13.684Z,9.40
2019-06-27T06:30:48.013Z,11.45
2019-06-27T06:33:22.364Z,10.68
2019-06-27T06:35:57.616Z,9.28
2019-06-27T06:38:31.988Z,7.25
2019-06-27T06:41:22.152Z,9.93
2019-06-27T06:43:56.405Z,10.50
2019-06-27T06:46:30.714Z,10.38
2019-06-27T06:49:05.060Z,5.47
2019-06-27T06:51:39.385Z,8.53
2019-06-27T06:54:29.748Z,12.45
2019-06-27T06:57:04.060Z,15.88
2019-06-27T06:59:38.272Z,9.65
2019-06-27T07:02:12.957Z,9.98
2019-06-27T07:04:47.196Z,9.55
2019-06-27T07:07:21.375Z,6.90
2019-06-27T07:09:56.410Z,7.72
2019-06-27T07:12:30.758Z,9.60
2019-06-27T07:15:23.194Z,9.83
2019-06-27T07:17:57.568Z,11.60
2019-06-27T07:20:31.868Z,8.53
2019-06-27T07:23:06.171Z,10.55
2019-06-27T07:25:40.444Z,10.50
2019-06-27T07:28:14.725Z,8.58
2019-06-27T07:30:49.070Z,6.30
2019-06-27T07:33:23.326Z,9.25
2019-06-27T07:35:57.948Z,6.60
2019-06-27T07:38:32.220Z,5.33
2019-06-27T07:41:06.537Z,7.83
2019-06-27T07:43:40.800Z,6.30
2019-06-27T07:46:25.043Z,5.10
2019-06-27T07:48:52.915Z,7.70
2019-06-27T07:51:27.474Z,7.08
2019-06-27T07:54:02.329Z,6.95
2019-06-27T07:56:46.231Z,9.43
2019-06-27T07:59:19.248Z,8.33
2019-06-27T08:01:54.435Z,6.60
2019-06-27T08:04:28.740Z,6.35
2019-06-27T08:07:02.992Z,6.78
2019-06-27T08:09:37.355Z,8.38
2019-06-27T08:12:12.060Z,6.35
2019-06-27T08:14:46.432Z,7.08
2019-06-27T08:17:20.701Z,9.43
2019-06-27T08:19:54.968Z,9.35
2019-06-27T08:22:29.292Z,7.58
2019-06-27T08:25:04.903Z,7.60
2019-06-27T08:27:39.264Z,9.48
2019-06-27T08:30:14.082Z,5.65
2019-06-27T08:32:48.356Z,5.83
2019-06-27T08:35:28.697Z,6.90
2019-06-27T08:38:02.955Z,7.03
2019-06-27T08:40:37.271Z,9.10
2019-06-27T08:43:11.572Z,8.30
2019-06-27T08:45:50.980Z,6.00
2019-06-27T08:48:25.288Z,8.58
2019-06-27T08:50:59.589Z,7.70
2019-06-27T08:53:33.840Z,12.82
2019-06-27T08:56:10.610Z,6.17
2019-06-27T08:58:44.924Z,9.30
2019-06-27T09:01:19.164Z,4.53
2019-06-27T09:03:53.451Z,7.35
2019-06-27T09:06:27.717Z,6.05
2019-06-27T09:09:02.408Z,12.33
2019-06-27T09:11:38.257Z,6.25
2019-06-27T09:14:12.679Z,4.50
2019-06-27T09:16:54.901Z,3.90
2019-06-27T09:19:29.228Z,5.37
2019-06-27T09:22:03.877Z,4.67
2019-06-27T09:24:39.543Z,5.12
2019-06-27T09:27:13.836Z,6.05
2019-06-27T09:30:00.616Z,7.53
2019-06-27T09:32:34.959Z,5.15
2019-06-27T09:35:10.727Z,5.33
2019-06-27T09:37:45.108Z,6.15
2019-06-27T09:40:20.559Z,7.40
2019-06-27T09:42:53.739Z,9.83
2019-06-27T09:45:28.060Z,5.92
2019-06-27T09:48:02.417Z,6.85
2019-06-27T09:50:36.775Z,6.08
2019-06-27T09:53:11.011Z,9.65
2019-06-27T09:55:47.450Z,5.87
2019-06-27T09:58:24.765Z,8.13
2019-06-27T10:00:59.076Z,8.75
2019-06-27T10:03:33.435Z,4.25
2019-06-27T10:06:26.412Z,5.45
2019-06-27T10:09:00.883Z,4.15
2019-06-27T10:11:42.208Z,3.65
2019-06-27T10:14:16.431Z,6.75
2019-06-27T10:16:50.709Z,7.90
2019-06-27T10:19:33.870Z,6.53
2019-06-27T10:22:08.163Z,6.25
2019-06-27T10:24:42.451Z,4.53
2019-06-27T10:27:16.710Z,3.70
2019-06-27T10:29:50.991Z,4.20
2019-06-27T10:32:25.245Z,3.95
2019-06-27T10:35:00.294Z,4.17
2019-06-27T10:37:46.460Z,4.97
2019-06-27T10:40:20.791Z,3.20
2019-06-27T10:42:55.060Z,6.70
2019-06-27T10:45:32.532Z,4.97
2019-06-27T10:48:12.643Z,4.42
2019-06-27T10:50:46.839Z,6.10
2019-06-27T10:53:21.047Z,3.77
2019-06-27T10:55:55.265Z,6.33
2019-06-27T10:58:29.512Z,3.50
2019-06-27T11:01:03.788Z,2.15
2019-06-27T11:03:38.761Z,3.30
2019-06-27T11:06:13.545Z,1.65
2019-06-27T11:08:47.901Z,2.47
2019-06-27T11:11:22.620Z,3.65
2019-06-27T11:14:09.604Z,3.85
2019-06-27T11:16:50.353Z,2.37
2019-06-27T11:19:24.600Z,4.30
2019-06-27T11:21:58.882Z,3.15
2019-06-27T11:24:43.527Z,4.15
2019-06-27T11:27:17.875Z,5.28
2019-06-27T11:30:00.543Z,3.50
2019-06-27T11:32:34.769Z,6.83
2019-06-27T11:35:09.159Z,2.83
2019-06-27T11:37:43.376Z,5.28
2019-06-27T11:40:17.900Z,4.60
2019-06-27T11:42:52.660Z,5.67
2019-06-27T11:45:30.028Z,3.58
2019-06-27T11:48:04.367Z,2.90
2019-06-27T11:50:38.667Z,4.10
2019-06-27T11:53:12.940Z,2.15
2019-06-27T11:55:47.142Z,3.90
2019-06-27T11:58:34.995Z,2.10
2019-06-27T12:01:09.217Z,2.35
2019-06-27T12:03:49.497Z,5.62
2019-06-27T12:06:19.460Z,2.92
2019-06-27T12:08:53.748Z,4.25
2019-06-27T12:11:28.068Z,2.55
2019-06-27T12:14:03.383Z,6.08
2019-06-27T12:16:40.844Z,2.47
2019-06-27T12:19:16.239Z,4.03
2019-06-27T12:21:50.555Z,4.00
2019-06-27T12:24:24.929Z,3.50
2019-06-27T12:26:59.387Z,4.53
2019-06-27T12:29:36.567Z,5.65
2019-06-27T12:32:12.902Z,6.28
2019-06-27T12:34:47.066Z,4.12
2019-06-27T12:37:21.373Z,7.28
2019-06-27T12:40:07.223Z,2.62
2019-06-27T12:45:22.636Z,3.77
2019-06-27T12:47:56.879Z,4.75
2019-06-27T12:50:31.100Z,5.22
2019-06-27T12:53:05.383Z,6.25
2019-06-27T12:55:39.671Z,2.52
2019-06-27T12:58:15.655Z,2.87
2019-06-27T13:00:49.883Z,2.30
2019-06-27T13:03:24.237Z,4.80
2019-06-27T13:05:58.495Z,3.45
2019-06-27T13:08:32.785Z,4.05
2019-06-27T13:11:07.189Z,5.10
2019-06-27T13:13:41.703Z,2.77
2019-06-27T13:16:30.892Z,3.45
2019-06-27T13:19:09.223Z,1.50
2019-06-27T13:21:43.523Z,2.58
2019-06-27T13:24:17.851Z,1.98
2019-06-27T13:26:52.409Z,5.10
2019-06-27T13:29:33.590Z,4.70
2019-06-27T13:32:07.935Z,4.10
2019-06-27T13:34:42.295Z,5.72
2019-06-27T13:37:16.487Z,4.28
2019-06-27T13:39:59.498Z,8.23
2019-06-27T13:42:37.158Z,5.50
2019-06-27T13:45:09.911Z,4.67
2019-06-27T13:47:44.288Z,9.23
2019-06-27T13:50:18.640Z,2.20
2019-06-27T13:52:54.791Z,2.60
2019-06-27T13:55:32.197Z,1.65
2019-06-27T13:58:25.802Z,5.80
2019-06-27T14:00:59.971Z,3.52
2019-06-27T14:03:48.061Z,2.25
2019-06-27T14:06:09.943Z,1.95
2019-06-27T14:08:44.092Z,1.82
2019-06-27T14:11:18.579Z,1.82
2019-06-27T14:13:52.727Z,4.20
2019-06-27T14:16:26.928Z,4.15
2019-06-27T14:19:01.077Z,5.30
2019-06-27T14:21:35.260Z,8.45
2019-06-27T14:24:11.062Z,4.42
2019-06-27T14:26:46.267Z,3.83
2019-06-27T14:29:19.945Z,2.77
2019-06-27T14:31:54.187Z,4.75
2019-06-27T14:34:28.355Z,2.92
2019-06-27T14:37:02.531Z,5.67
2019-06-27T14:39:36.704Z,3.40
2019-06-27T14:42:10.853Z,3.58
2019-06-27T14:44:45.030Z,2.72
2019-06-27T14:47:19.717Z,3.62
2019-06-27T14:49:53.877Z,2.20
2019-06-27T14:52:28.119Z,6.58
2019-06-27T14:55:02.255Z,1.60
2019-06-27T14:57:36.499Z,5.33
2019-06-27T15:00:11.321Z,4.85
2019-06-27T15:02:45.471Z,3.35
2019-06-27T15:05:31.804Z,5.12
2019-06-27T15:07:55.543Z,2.65
2019-06-27T15:10:29.855Z,3.10
2019-06-27T15:13:04.014Z,4.75
2019-06-27T15:15:38.203Z,2.95
2019-06-27T15:18:16.342Z,6.30
2019-06-27T15:20:48.662Z,6.80
2019-06-27T15:23:22.875Z,2.05
2019-06-27T15:25:57.324Z,4.78
2019-06-27T15:28:34.149Z,4.42
2019-06-27T15:31:07.355Z,6.20
2019-06-27T15:33:41.516Z,2.92
2019-06-27T15:36:15.771Z,7.78
2019-06-27T15:38:49.926Z,5.45
2019-06-27T15:41:24.128Z,5.37
2019-06-27T15:43:58.611Z,4.20
2019-06-27T15:46:32.821Z,8.88
2019-06-27T15:49:08.564Z,5.42
2019-06-27T15:51:42.771Z,7.53
2019-06-27T15:54:16.959Z,2.75
2019-06-27T15:56:56.079Z,4.00
2019-06-27T15:59:30.451Z,4.03
2019-06-27T16:02:04.695Z,3.80
2019-06-27T16:04:40.503Z,5.35
2019-06-27T16:07:14.671Z,2.65
2019-06-27T16:09:48.830Z,4.58
2019-06-27T16:12:23.208Z,4.00
2019-06-27T16:14:57.367Z,5.72
2019-06-27T16:17:31.682Z,5.20
2019-06-27T16:20:07.847Z,4.85
2019-06-27T16:22:44.078Z,2.40
2019-06-27T16:25:18.061Z,5.45
2019-06-27T16:27:52.212Z,5.25
2019-06-27T16:30:27.125Z,6.17
2019-06-27T16:33:01.274Z,5.70
2019-06-27T16:35:35.487Z,5.35
2019-06-27T16:38:10.130Z,1.80
2019-06-27T16:40:44.936Z,6.25
2019-06-27T16:43:19.248Z,1.72
2019-06-27T16:45:53.455Z,1.65
2019-06-27T16:48:27.691Z,2.87
2019-06-27T16:51:01.863Z,2.83
2019-06-27T16:53:36.102Z,3.08
2019-06-27T16:56:10.397Z,5.08
2019-06-27T16:58:45.265Z,4.83
2019-06-27T17:01:19.434Z,5.35
2019-06-27T17:03:53.884Z,4.20
2019-06-27T17:06:40.800Z,3.98
2019-06-27T17:09:05.099Z,4.12
2019-06-27T17:11:39.247Z,5.20
2019-06-27T17:14:13.562Z,5.25
2019-06-27T17:16:48.115Z,6.50
2019-06-27T17:19:22.950Z,4.50
2019-06-27T17:21:57.199Z,5.90
2019-06-27T17:24:31.486Z,5.30
2019-06-27T17:27:07.567Z,5.78
2019-06-27T17:29:41.810Z,5.00
2019-06-27T17:32:15.978Z,3.42
2019-06-27T17:34:50.169Z,3.27
2019-06-27T17:37:24.324Z,7.50
2019-06-27T17:39:58.550Z,5.37
2019-06-27T17:42:32.690Z,3.05
2019-06-27T17:45:07.406Z,4.92
2019-06-27T17:47:41.554Z,3.08
2019-06-27T17:50:15.877Z,5.42
2019-06-27T17:52:50.038Z,4.33
2019-06-27T17:55:24.218Z,4.97
2019-06-27T17:57:58.390Z,5.53
2019-06-27T18:00:33.834Z,6.83
2019-06-27T18:03:07.958Z,4.28
2019-06-27T18:05:42.142Z,6.90
2019-06-27T18:08:18.654Z,3.30
2019-06-27T18:10:52.722Z,1.82
2019-06-27T18:13:26.904Z,4.95
2019-06-27T18:16:01.061Z,6.75
2019-06-27T18:18:37.809Z,3.85
2019-06-27T18:21:11.998Z,4.50
2019-06-27T18:23:46.184Z,6.12
2019-06-27T18:26:20.351Z,4.87
2019-06-27T18:28:54.509Z,4.17
2019-06-27T18:31:28.680Z,8.20
2019-06-27T18:34:02.781Z,9.10
2019-06-27T18:36:36.953Z,9.15
2019-06-27T18:39:12.649Z,6.62
2019-06-27T18:41:46.811Z,8.43
2019-06-27T18:44:20.997Z,6.47
2019-06-27T18:46:56.261Z,6.70
2019-06-27T18:49:30.527Z,6.25
2019-06-27T18:52:04.774Z,6.55
2019-06-27T18:54:38.976Z,4.90
2019-06-27T18:57:13.285Z,4.25
2019-06-27T18:59:47.364Z,5.72
2019-06-27T19:02:21.625Z,10.35
2019-06-27T19:04:55.849Z,9.93
2019-06-27T19:07:44.473Z,5.25
2019-06-27T19:10:09.261Z,8.45
2019-06-27T19:12:44.141Z,4.67
2019-06-27T19:15:18.771Z,8.13
2019-06-27T19:17:52.917Z,4.78
2019-06-27T19:20:34.521Z,5.87
2019-06-27T19:23:13.037Z,7.42
2019-06-27T19:25:50.398Z,7.12
2019-06-27T19:28:24.670Z,6.22
2019-06-27T19:30:58.855Z,8.08
2019-06-27T19:33:33.033Z,4.72
2019-06-27T19:36:07.274Z,9.28
2019-06-27T19:38:41.464Z,8.40
2019-06-27T19:41:15.684Z,12.82
2019-06-27T19:43:50.004Z,9.15
2019-06-27T19:46:24.253Z,9.38
2019-06-27T19:48:58.437Z,11.55
2019-06-27T19:51:32.506Z,6.45
2019-06-27T19:54:06.821Z,5.22
2019-06-27T19:56:40.911Z,8.15
2019-06-27T19:59:15.105Z,6.30
2019-06-27T20:01:49.257Z,5.80
2019-06-27T20:04:23.369Z,8.48
2019-06-27T20:06:57.561Z,9.30
2019-06-27T20:09:31.752Z,6.15
2019-06-27T20:12:07.609Z,8.05
2019-06-27T20:14:41.789Z,13.45
2019-06-27T20:17:15.997Z,9.55
2019-06-27T20:19:50.187Z,9.08
2019-06-27T20:22:24.285Z,12.05
2019-06-27T20:24:59.042Z,10.13
2019-06-27T20:27:33.291Z,7.70
2019-06-27T20:30:10.162Z,9.60
2019-06-27T20:32:44.957Z,6.67
2019-06-27T20:35:19.114Z,9.03
2019-06-27T20:37:55.905Z,9.95
2019-06-27T20:40:30.194Z,5.60
2019-06-27T20:43:04.438Z,8.45
2019-06-27T20:45:38.687Z,4.83
2019-06-27T20:48:12.910Z,4.40
2019-06-27T20:50:47.024Z,8.60
2019-06-27T20:53:21.301Z,10.13
2019-06-27T20:55:55.449Z,8.78
2019-06-27T20:58:29.553Z,7.90
2019-06-27T21:01:03.781Z,6.15
2019-06-27T21:03:37.972Z,8.43
2019-06-27T21:06:12.142Z,9.10
2019-06-27T21:08:51.265Z,7.70
2019-06-27T21:11:22.253Z,5.95
2019-06-27T21:13:56.985Z,10.05
2019-06-27T21:16:32.885Z,9.08
2019-06-27T21:19:07.036Z,8.45
2019-06-27T21:21:41.221Z,7.85
2019-06-27T21:24:15.366Z,13.25
2019-06-27T21:26:49.637Z,10.63
2019-06-27T21:29:23.790Z,9.60
2019-06-27T21:31:57.965Z,5.40
2019-06-27T21:34:32.614Z,8.75
2019-06-27T21:37:06.860Z,8.85
2019-06-27T21:39:41.109Z,10.50
2019-06-27T21:42:15.317Z,8.90
2019-06-27T21:44:49.526Z,9.08
2019-06-27T21:47:23.669Z,4.97
2019-06-27T21:49:57.785Z,10.10
2019-06-27T21:52:32.013Z,9.70
2019-06-27T21:55:06.929Z,9.65
2019-06-27T21:57:41.185Z,8.65
2019-06-27T22:00:17.049Z,10.78
2019-06-27T22:02:51.301Z,8.78
2019-06-27T22:05:25.528Z,10.55
2019-06-27T22:07:59.722Z,9.40
2019-06-27T22:10:34.010Z,10.90
2019-06-27T22:13:08.266Z,9.53
2019-06-27T22:15:42.413Z,10.53
2019-06-27T22:18:16.513Z,13.40
2019-06-27T22:20:50.733Z,7.25
2019-06-27T22:23:24.976Z,9.93
2019-06-27T22:25:59.057Z,11.33
2019-06-27T22:28:33.365Z,8.90
2019-06-27T22:31:07.612Z,9.00
2019-06-27T22:33:41.841Z,7.42
2019-06-27T22:36:17.726Z,5.87
2019-06-27T22:39:10.088Z,7.87
2019-06-27T22:42:02.305Z,8.90
2019-06-27T22:44:54.337Z,9.78
2019-06-27T22:47:46.234Z,5.67
2019-06-27T22:50:23.353Z,9.05
2019-06-27T22:53:02.286Z,4.72
2019-06-27T22:55:36.573Z,8.38
2019-06-27T22:58:10.993Z,8.13
2019-06-27T23:00:45.319Z,6.97
2019-06-27T23:03:19.522Z,11.08
2019-06-27T23:05:53.778Z,7.95
2019-06-27T23:08:28.034Z,9.45
2019-06-27T23:11:02.189Z,9.68
2019-06-27T23:13:36.518Z,14.87
2019-06-27T23:16:10.743Z,5.65
2019-06-27T23:18:44.912Z,7.17
2019-06-27T23:21:18.980Z,6.95
2019-06-27T23:23:53.323Z,9.85
2019-06-27T23:26:27.573Z,9.05
2019-06-27T23:29:02.844Z,12.47
2019-06-27T23:31:37.041Z,10.25
2019-06-27T23:34:11.254Z,11.50
2019-06-27T23:36:45.445Z,9.30
2019-06-27T23:39:19.613Z,9.55
2019-06-27T23:41:54.693Z,9.68
2019-06-27T23:44:28.927Z,10.23
2019-06-27T23:47:03.303Z,7.58
2019-06-27T23:49:37.472Z,9.80
2019-06-27T23:52:11.632Z,12.30
2019-06-27T23:54:45.824Z,5.62
2019-06-27T23:57:19.984Z,8.33
2019-06-27T23:59:54.188Z,8.63
